Time;durP1;ratioP1;P1;durP2;ratioP2;P2;SDS_P1;SDS_P2;PMS_P1;PMS_P2;Temp;Humidity;BMP_temperature;BMP_pressure;BME280_temperature;BME280_humidity;BME280_pressure;Samples;Min_cycle;Max_cycle;Signal;HPM_P1;HPM_P2
2022/02/24 00:02:02;;;;;;;4.20;3.87;;;7.30;99.90;;;;;;5027951;28;20637;-71
2022/02/24 00:04:28;;;;;;;3.83;3.53;;;7.40;99.90;;;;;;5046414;28;20184;-70
2022/02/24 00:06:54;;;;;;;5.43;3.87;;;7.20;99.90;;;;;;5027942;28;20196;-69
2022/02/24 00:09:20;;;;;;;4.60;4.13;;;7.10;99.90;;;;;;5045471;28;21014;-71
2022/02/24 00:11:45;;;;;;;3.60;3.30;;;7.30;99.90;;;;;;5045718;28;20183;-70
2022/02/24 00:14:11;;;;;;;3.70;3.33;;;7.40;99.90;;;;;;5044652;28;20242;-70
2022/02/24 00:16:36;;;;;;;5.50;4.50;;;7.40;99.90;;;;;;5045719;28;20179;-71
2022/02/24 00:19:02;;;;;;;3.80;3.30;;;7.50;99.90;;;;;;5045532;28;20283;-72
2022/02/24 00:21:28;;;;;;;4.53;4.03;;;7.60;99.90;;;;;;5045747;28;20212;-71
2022/02/24 00:23:53;;;;;;;4.37;3.40;;;7.70;99.90;;;;;;5045424;28;20905;-71
2022/02/24 00:26:19;;;;;;;4.40;3.47;;;7.70;99.90;;;;;;5045937;28;20174;-70
2022/02/24 00:28:45;;;;;;;5.00;3.50;;;7.80;99.90;;;;;;5045344;28;20199;-72
2022/02/24 00:31:10;;;;;;;4.60;4.03;;;8.00;99.90;;;;;;5045634;28;20701;-70
2022/02/24 00:33:38;;;;;;;5.97;3.60;;;8.10;99.90;;;;;;5027210;28;20210;-71
2022/02/24 00:36:05;;;;;;;4.03;3.70;;;8.20;99.90;;;;;;5045139;28;20462;-73
2022/02/24 00:38:31;;;;;;;5.47;3.97;;;8.30;99.90;;;;;;5045604;28;20766;-70
2022/02/24 00:40:57;;;;;;;3.80;3.43;;;8.40;99.90;;;;;;5045014;28;20417;-72
2022/02/24 00:43:23;;;;;;;4.67;3.10;;;8.40;99.90;;;;;;5045169;28;20435;-71
2022/02/24 00:45:48;;;;;;;4.03;3.53;;;8.40;99.90;;;;;;5045045;28;20417;-70
2022/02/24 00:48:14;;;;;;;3.23;2.67;;;8.40;99.90;;;;;;5045244;28;20237;-71
2022/02/24 00:50:39;;;;;;;3.70;2.97;;;8.30;99.90;;;;;;5044954;28;20595;-70
2022/02/24 00:53:05;;;;;;;2.87;2.53;;;8.40;99.90;;;;;;5044849;28;20838;-70
2022/02/24 00:55:30;;;;;;;6.13;2.53;;;8.30;99.90;;;;;;5010268;28;20184;-69
2022/02/24 00:57:56;;;;;;;3.77;2.10;;;8.20;99.90;;;;;;5044934;28;20183;-70
2022/02/24 01:00:22;;;;;;;2.10;1.90;;;8.20;99.90;;;;;;5044780;28;20717;-71
2022/02/24 01:02:48;;;;;;;5.60;2.30;;;8.30;99.90;;;;;;5026380;28;20420;-69
2022/02/24 01:05:14;;;;;;;2.93;2.27;;;8.40;99.90;;;;;;5044971;28;20667;-68
2022/02/24 01:07:40;;;;;;;4.13;3.37;;;8.60;99.90;;;;;;5044781;28;20185;-69
2022/02/24 01:10:06;;;;;;;2.77;2.50;;;8.50;99.90;;;;;;5044707;28;20225;-69
2022/02/24 01:12:32;;;;;;;4.57;2.70;;;8.50;99.90;;;;;;5045361;28;20416;-69
2022/02/24 01:15:06;;;;;;;2.93;2.23;;;8.70;99.90;;;;;;5045377;28;20461;-69
2022/02/24 01:17:32;;;;;;;4.07;2.50;;;8.80;99.90;;;;;;5045059;28;20417;-70
2022/02/24 01:19:58;;;;;;;5.33;3.07;;;8.80;99.90;;;;;;5044497;28;20436;-69
2022/02/24 01:22:23;;;;;;;2.80;2.60;;;8.60;99.90;;;;;;5044373;28;20439;-70
2022/02/24 01:24:49;;;;;;;3.10;2.50;;;8.50;99.90;;;;;;5044346;28;20641;-70
2022/02/24 01:27:15;;;;;;;3.47;2.73;;;8.30;99.90;;;;;;5044293;28;20194;-69
2022/02/24 01:29:40;;;;;;;4.70;3.50;;;8.40;99.90;;;;;;5025542;28;20206;-72
2022/02/24 01:32:06;;;;;;;4.17;3.00;;;8.30;99.90;;;;;;5044010;28;20270;-69
2022/02/24 01:34:32;;;;;;;2.87;2.67;;;8.40;99.90;;;;;;5044150;28;20251;-69
2022/02/24 01:36:57;;;;;;;3.93;2.73;;;8.60;99.90;;;;;;5044229;28;20862;-69
2022/02/24 01:39:23;;;;;;;2.90;2.57;;;8.80;99.90;;;;;;5042638;28;20544;-70
2022/02/24 01:41:48;;;;;;;2.67;2.47;;;8.90;99.90;;;;;;5044439;28;20178;-69
2022/02/24 01:44:15;;;;;;;2.80;2.60;;;8.90;99.90;;;;;;5043690;28;20448;-70
2022/02/24 01:46:42;;;;;;;3.13;2.77;;;8.80;99.90;;;;;;5044449;28;20553;-70
2022/02/24 01:49:09;;;;;;;8.33;3.30;;;8.80;99.90;;;;;;5043866;28;20440;-70
2022/02/24 01:51:36;;;;;;;3.33;3.03;;;8.80;99.90;;;;;;5043916;28;20426;-70
2022/02/24 01:54:02;;;;;;;2.90;2.53;;;8.70;99.90;;;;;;5043212;28;20473;-70
2022/02/24 01:56:28;;;;;;;2.50;2.30;;;8.70;99.90;;;;;;5025746;28;20504;-71
2022/02/24 01:58:54;;;;;;;2.70;2.50;;;8.70;99.90;;;;;;5043547;28;20538;-71
2022/02/24 02:01:21;;;;;;;3.90;3.00;;;8.70;99.90;;;;;;5043950;28;20389;-71
2022/02/24 02:03:51;;;;;;;4.10;3.40;;;8.60;99.90;;;;;;5044032;28;20497;-70
2022/02/24 02:06:18;;;;;;;4.00;2.40;;;8.40;99.90;;;;;;5043597;28;20772;-70
2022/02/24 02:08:44;;;;;;;3.97;2.70;;;8.40;99.90;;;;;;5043252;28;20454;-69
2022/02/24 02:11:10;;;;;;;3.97;2.80;;;8.40;99.90;;;;;;5025824;28;20506;-69
2022/02/24 02:13:36;;;;;;;3.10;2.33;;;8.30;99.90;;;;;;5025096;28;20214;-70
2022/02/24 02:16:02;;;;;;;3.00;2.50;;;8.30;99.90;;;;;;5043471;28;20673;-69
2022/02/24 02:18:28;;;;;;;2.93;2.63;;;8.30;99.90;;;;;;5043321;28;20408;-69
2022/02/24 02:20:54;;;;;;;2.83;2.43;;;8.10;99.90;;;;;;5043591;28;20977;-68
2022/02/24 02:23:19;;;;;;;3.33;2.30;;;8.00;99.90;;;;;;5043173;28;20191;-69
2022/02/24 02:25:46;;;;;;;4.53;2.73;;;8.00;99.90;;;;;;5043491;28;20203;-70
2022/02/24 02:28:13;;;;;;;3.93;2.67;;;8.10;99.90;;;;;;5043780;28;20352;-69
2022/02/24 02:30:39;;;;;;;3.40;2.73;;;8.30;99.90;;;;;;5042951;28;20653;-69
2022/02/24 02:33:05;;;;;;;3.30;2.90;;;8.10;99.90;;;;;;5043202;28;20448;-70
2022/02/24 02:35:30;;;;;;;6.00;3.10;;;8.20;99.90;;;;;;5043060;28;20188;-69
2022/02/24 02:37:57;;;;;;;2.83;2.33;;;8.20;99.90;;;;;;5025354;28;20207;-69
2022/02/24 02:40:24;;;;;;;3.53;2.50;;;8.00;99.90;;;;;;5043064;28;20211;-69
2022/02/24 02:42:50;;;;;;;2.83;2.57;;;8.10;99.90;;;;;;5042818;28;20506;-71
2022/02/24 02:45:16;;;;;;;2.77;2.57;;;8.20;99.90;;;;;;5043045;28;20847;-69
2022/02/24 02:47:42;;;;;;;3.80;2.63;;;8.30;99.90;;;;;;5008500;28;20451;-69
2022/02/24 02:50:08;;;;;;;2.73;2.53;;;8.20;99.90;;;;;;5043033;28;20442;-70
2022/02/24 02:52:34;;;;;;;2.40;2.20;;;8.30;99.90;;;;;;5042934;28;20412;-69
2022/02/24 02:55:07;;;;;;;3.33;2.67;;;8.40;99.90;;;;;;5043065;28;20630;-68
2022/02/24 02:57:33;;;;;;;3.50;2.90;;;8.40;99.90;;;;;;5042879;28;20189;-68
2022/02/24 02:59:59;;;;;;;3.20;2.90;;;8.30;99.90;;;;;;5042747;28;20800;-69
2022/02/24 03:02:24;;;;;;;3.57;2.97;;;8.30;99.90;;;;;;5025178;28;20425;-70
2022/02/24 03:04:50;;;;;;;4.20;2.90;;;8.40;99.90;;;;;;5043201;28;20420;-69
2022/02/24 03:07:17;;;;;;;5.50;3.43;;;8.50;99.90;;;;;;5043007;28;20193;-70
2022/02/24 03:09:44;;;;;;;7.43;3.80;;;8.50;99.90;;;;;;5042172;28;20220;-69
2022/02/24 03:12:10;;;;;;;3.87;3.00;;;8.60;99.90;;;;;;5042893;28;20421;-70
2022/02/24 03:14:38;;;;;;;3.57;2.90;;;8.70;99.90;;;;;;5042915;28;20596;-69
2022/02/24 03:17:04;;;;;;;3.17;2.87;;;8.80;99.90;;;;;;5042575;28;20187;-70
2022/02/24 03:19:29;;;;;;;5.10;3.70;;;8.80;99.90;;;;;;5042728;28;20739;-70
2022/02/24 03:21:55;;;;;;;3.83;3.17;;;8.80;99.90;;;;;;5042548;28;20422;-70
2022/02/24 03:24:21;;;;;;;4.17;3.57;;;8.80;99.90;;;;;;5042501;28;21337;-70
2022/02/24 03:26:47;;;;;;;3.53;3.20;;;8.70;99.90;;;;;;5045435;28;20673;-71
2022/02/24 03:29:12;;;;;;;3.90;2.83;;;8.70;99.90;;;;;;5046553;28;20239;-69
2022/02/24 03:31:38;;;;;;;4.43;3.93;;;8.70;99.90;;;;;;5046624;28;20442;-70
2022/02/24 03:34:04;;;;;;;4.90;3.80;;;8.60;99.90;;;;;;5046308;28;20715;-70
2022/02/24 03:36:29;;;;;;;5.20;3.70;;;8.60;99.90;;;;;;5046640;28;20563;-69
2022/02/24 03:38:55;;;;;;;5.37;3.57;;;8.60;99.90;;;;;;5046190;28;20839;-68
2022/02/24 03:41:20;;;;;;;3.90;3.00;;;8.70;99.90;;;;;;5046600;28;20176;-69
2022/02/24 03:43:46;;;;;;;2.77;2.50;;;8.70;99.90;;;;;;5045944;28;20608;-71
2022/02/24 03:46:12;;;;;;;3.07;2.77;;;8.80;99.90;;;;;;5046497;28;20280;-69
2022/02/24 03:48:38;;;;;;;2.50;2.30;;;8.80;99.90;;;;;;5045393;28;20538;-69
2022/02/24 03:51:04;;;;;;;3.77;2.87;;;8.90;99.90;;;;;;5046424;28;20598;-69
2022/02/24 03:53:30;;;;;;;2.43;2.20;;;9.00;99.90;;;;;;5045641;28;20487;-69
2022/02/24 03:55:55;;;;;;;5.57;2.50;;;9.10;99.90;;;;;;5028211;28;20191;-71
2022/02/24 03:58:21;;;;;;;3.60;2.57;;;9.20;99.90;;;;;;5045962;28;20182;-69
2022/02/24 04:00:46;;;;;;;2.70;2.23;;;9.10;99.90;;;;;;5045573;28;20195;-69
2022/02/24 04:03:12;;;;;;;3.00;2.70;;;9.20;99.90;;;;;;5046282;28;20185;-70
2022/02/24 04:05:38;;;;;;;5.33;2.43;;;9.00;99.90;;;;;;5028435;28;20274;-71
2022/02/24 04:08:04;;;;;;;4.30;2.50;;;9.00;99.90;;;;;;5028375;28;20724;-69
2022/02/24 04:10:29;;;;;;;3.70;2.80;;;9.00;99.90;;;;;;5045267;28;20601;-71
2022/02/24 04:12:55;;;;;;;3.17;2.87;;;9.00;99.90;;;;;;5046863;28;20418;-70
2022/02/24 04:15:21;;;;;;;4.20;2.30;;;8.80;99.90;;;;;;5027273;28;20432;-70
2022/02/24 04:17:46;;;;;;;3.13;2.63;;;8.80;99.90;;;;;;5046532;28;20263;-69
2022/02/24 04:20:12;;;;;;;3.00;2.60;;;8.80;99.90;;;;;;5027359;28;20300;-69
2022/02/24 04:22:37;;;;;;;3.30;2.50;;;8.80;99.90;;;;;;5046175;28;20177;-69
2022/02/24 04:25:04;;;;;;;3.60;3.27;;;8.80;99.90;;;;;;5045204;28;20626;-69
2022/02/24 04:27:29;;;;;;;2.57;2.37;;;8.90;99.90;;;;;;5045780;28;20598;-70
2022/02/24 04:29:55;;;;;;;3.00;2.70;;;8.90;99.90;;;;;;5045834;28;20448;-70
2022/02/24 04:32:21;;;;;;;4.50;2.60;;;8.70;99.90;;;;;;5045525;28;20280;-72
2022/02/24 04:34:46;;;;;;;3.97;3.23;;;8.70;99.90;;;;;;5045312;28;20204;-70
2022/02/24 04:37:12;;;;;;;3.40;3.10;;;8.70;99.90;;;;;;5044474;28;20239;-70
2022/02/24 04:39:37;;;;;;;3.53;2.80;;;8.70;99.90;;;;;;5044947;28;20206;-70
2022/02/24 04:42:03;;;;;;;3.53;2.90;;;8.80;99.90;;;;;;5045218;28;20193;-69
2022/02/24 04:44:29;;;;;;;4.50;3.10;;;8.60;99.90;;;;;;5044880;28;20187;-70
2022/02/24 04:46:54;;;;;;;3.40;2.73;;;8.60;99.90;;;;;;5045162;28;20478;-70
2022/02/24 04:49:20;;;;;;;5.63;3.30;;;8.60;99.90;;;;;;5027133;28;20213;-69
2022/02/24 04:51:45;;;;;;;3.73;2.83;;;8.70;99.90;;;;;;5044992;28;20222;-69
2022/02/24 04:54:11;;;;;;;4.27;2.73;;;8.90;99.90;;;;;;5044874;28;20574;-69
2022/02/24 04:56:37;;;;;;;4.43;2.80;;;8.90;99.90;;;;;;5045075;28;20183;-70
2022/02/24 04:59:03;;;;;;;4.33;3.73;;;9.00;99.90;;;;;;5045120;28;20204;-70
2022/02/24 05:01:28;;;;;;;5.30;3.50;;;9.00;99.90;;;;;;5043459;28;20173;-69
2022/02/24 05:03:54;;;;;;;7.57;3.27;;;9.00;99.90;;;;;;5044775;28;20792;-69
2022/02/24 05:06:20;;;;;;;2.80;2.60;;;9.00;99.90;;;;;;5044660;28;20228;-69
2022/02/24 05:08:46;;;;;;;3.57;3.27;;;9.10;99.90;;;;;;5044870;28;21050;-71
2022/02/24 05:11:11;;;;;;;4.10;3.70;;;9.10;99.90;;;;;;5045336;28;20634;-70
2022/02/24 05:13:37;;;;;;;4.07;3.67;;;9.10;99.90;;;;;;5044543;28;20440;-70
2022/02/24 05:16:02;;;;;;;3.67;3.37;;;8.60;99.90;;;;;;5045326;28;20229;-69
2022/02/24 05:18:28;;;;;;;4.60;3.70;;;8.70;99.90;;;;;;5044739;28;20182;-71
2022/02/24 05:20:54;;;;;;;3.53;3.23;;;8.80;99.90;;;;;;5027199;28;20187;-69
2022/02/24 05:23:19;;;;;;;3.57;3.23;;;8.80;99.90;;;;;;5044897;28;20448;-71
2022/02/24 05:25:45;;;;;;;6.57;3.60;;;8.80;99.90;;;;;;5044583;28;20188;-72
2022/02/24 05:28:11;;;;;;;5.10;3.97;;;8.70;99.90;;;;;;5044432;28;20189;-71
2022/02/24 05:30:38;;;;;;;5.47;4.80;;;8.40;99.90;;;;;;5044092;28;20206;-70
2022/02/24 05:33:04;;;;;;;5.33;4.00;;;8.30;99.90;;;;;;5044340;28;20433;-69
2022/02/24 05:35:30;;;;;;;4.77;4.30;;;8.40;99.90;;;;;;5026578;28;20980;-71
2022/02/24 05:37:56;;;;;;;5.53;4.93;;;8.40;99.90;;;;;;5044313;28;20999;-70
2022/02/24 05:40:23;;;;;;;4.67;4.20;;;8.30;99.90;;;;;;5043736;28;20534;-69
2022/02/24 05:42:48;;;;;;;5.83;4.90;;;8.30;99.90;;;;;;5044324;28;20406;-69
2022/02/24 05:45:14;;;;;;;6.07;5.47;;;8.20;99.90;;;;;;5043540;28;20426;-70
2022/02/24 05:47:40;;;;;;;7.07;5.50;;;8.10;99.90;;;;;;5044195;28;20275;-70
2022/02/24 05:50:09;;;;;;;7.50;5.10;;;8.20;99.90;;;;;;5043358;28;20296;-70
2022/02/24 05:52:36;;;;;;;5.73;5.20;;;8.10;99.90;;;;;;5043817;28;20418;-71
2022/02/24 05:55:03;;;;;;;6.00;5.07;;;8.30;99.90;;;;;;5043522;28;20455;-70
2022/02/24 05:57:29;;;;;;;4.50;4.20;;;8.30;99.90;;;;;;5043835;28;20411;-70
2022/02/24 05:59:55;;;;;;;6.00;5.33;;;8.30;99.90;;;;;;5043363;28;20439;-71
2022/02/24 06:02:20;;;;;;;6.03;4.53;;;8.10;99.90;;;;;;5043726;28;20186;-72
2022/02/24 06:04:46;;;;;;;7.40;5.50;;;8.20;99.90;;;;;;5043513;28;20184;-69
2022/02/24 06:07:11;;;;;;;6.37;5.77;;;8.30;99.90;;;;;;5042954;28;20185;-70
2022/02/24 06:09:37;;;;;;;4.93;4.43;;;8.30;99.90;;;;;;5043045;28;20224;-72
2022/02/24 06:12:03;;;;;;;5.97;5.37;;;8.30;99.90;;;;;;5043797;28;20178;-70
2022/02/24 06:14:29;;;;;;;6.23;5.50;;;8.20;99.90;;;;;;5042923;28;20212;-69
2022/02/24 06:16:54;;;;;;;6.70;6.10;;;8.20;99.90;;;;;;5025365;28;20507;-68
2022/02/24 06:19:20;;;;;;;6.60;5.03;;;8.00;99.90;;;;;;5025202;28;20626;-69
2022/02/24 06:21:48;;;;;;;7.67;6.37;;;8.00;99.90;;;;;;5043299;28;20176;-70
2022/02/24 06:24:14;;;;;;;7.13;6.00;;;8.10;99.90;;;;;;5043344;28;20248;-70
2022/02/24 06:26:40;;;;;;;7.00;5.70;;;8.10;99.90;;;;;;5025307;28;20858;-69
2022/02/24 06:29:06;;;;;;;7.90;6.93;;;8.20;99.90;;;;;;5042910;28;20673;-70
2022/02/24 06:31:34;;;;;;;6.53;5.80;;;8.40;99.90;;;;;;5042971;28;20188;-70
2022/02/24 06:34:01;;;;;;;7.97;5.83;;;8.40;99.90;;;;;;5042848;28;20196;-71
2022/02/24 06:36:27;;;;;;;8.90;5.60;;;8.40;99.90;;;;;;5042915;28;20916;-72
2022/02/24 06:38:53;;;;;;;6.13;5.53;;;8.30;99.90;;;;;;5042719;28;20470;-70
2022/02/24 06:41:20;;;;;;;8.93;6.13;;;8.30;99.90;;;;;;5042784;28;20477;-70
2022/02/24 06:43:45;;;;;;;6.63;5.70;;;8.40;99.90;;;;;;5042956;28;20194;-70
2022/02/24 06:46:13;;;;;;;8.23;5.43;;;8.40;99.90;;;;;;5042995;28;20864;-72
2022/02/24 06:48:39;;;;;;;12.03;6.07;;;8.40;99.90;;;;;;5042716;28;20183;-71
2022/02/24 06:51:05;;;;;;;6.33;5.43;;;8.40;99.90;;;;;;5042859;28;20771;-72
2022/02/24 06:53:30;;;;;;;8.30;7.20;;;8.40;99.90;;;;;;5042676;28;20455;-71
2022/02/24 06:55:56;;;;;;;7.77;5.77;;;8.30;99.90;;;;;;5042627;28;20780;-69
2022/02/24 06:58:21;;;;;;;8.93;6.93;;;8.40;99.90;;;;;;5042805;28;20186;-72
2022/02/24 07:00:47;;;;;;;6.90;6.30;;;8.50;99.90;;;;;;5042275;28;20224;-72
2022/02/24 07:03:13;;;;;;;8.07;6.40;;;8.60;99.90;;;;;;5024666;28;20774;-71
2022/02/24 07:05:38;;;;;;;8.10;6.60;;;8.70;99.90;;;;;;5042888;28;20658;-70
2022/02/24 07:08:04;;;;;;;6.77;6.17;;;8.60;99.90;;;;;;5042329;28;20234;-70
2022/02/24 07:10:30;;;;;;;8.40;6.80;;;8.40;99.90;;;;;;5042354;28;20253;-68
2022/02/24 07:12:56;;;;;;;6.43;5.83;;;8.40;99.90;;;;;;5043661;28;20451;-69
2022/02/24 07:15:22;;;;;;;8.17;6.60;;;8.60;99.90;;;;;;5042465;28;20187;-71
2022/02/24 07:17:47;;;;;;;6.90;5.87;;;8.70;99.90;;;;;;5042807;28;20200;-69
2022/02/24 07:20:15;;;;;;;5.53;5.03;;;8.70;99.90;;;;;;5042323;28;20554;-69
2022/02/24 07:22:41;;;;;;;7.77;6.97;;;8.80;99.90;;;;;;5043114;28;20180;-69
2022/02/24 07:25:07;;;;;;;5.93;5.43;;;8.90;99.90;;;;;;5042467;28;21356;-69
2022/02/24 07:27:34;;;;;;;6.17;5.57;;;9.00;99.90;;;;;;5042185;28;20790;-70
2022/02/24 07:30:00;;;;;;;7.50;5.73;;;9.00;99.90;;;;;;5042288;28;20830;-70
2022/02/24 07:32:26;;;;;;;8.50;5.80;;;9.00;99.90;;;;;;5042349;28;20543;-69
2022/02/24 07:34:51;;;;;;;8.00;5.63;;;8.90;99.90;;;;;;5042684;28;20466;-69
2022/02/24 07:37:17;;;;;;;8.17;5.60;;;8.90;99.90;;;;;;5024603;28;20188;-71
2022/02/24 07:39:43;;;;;;;6.53;5.87;;;9.00;99.90;;;;;;5023913;28;20588;-72
2022/02/24 07:42:08;;;;;;;6.70;5.60;;;9.00;99.90;;;;;;5042229;28;20180;-69
2022/02/24 07:44:34;;;;;;;5.00;4.53;;;9.00;99.90;;;;;;5041847;28;20201;-69
2022/02/24 07:47:01;;;;;;;5.37;4.90;;;9.10;99.90;;;;;;5042273;28;20236;-69
2022/02/24 07:49:26;;;;;;;9.27;5.23;;;9.30;99.90;;;;;;5042111;28;20412;-69
2022/02/24 07:51:52;;;;;;;6.43;4.67;;;9.50;99.90;;;;;;5042550;28;20785;-72
2022/02/24 07:54:22;;;;;;;8.43;5.67;;;9.60;99.90;;;;;;5041082;28;20233;-71
2022/02/24 07:56:50;;;;;;;6.03;4.63;;;9.60;99.90;;;;;;5041858;28;20192;-73
2022/02/24 07:59:16;;;;;;;6.40;4.97;;;9.60;99.90;;;;;;5041268;28;20493;-70
2022/02/24 08:01:42;;;;;;;5.87;4.93;;;9.50;99.90;;;;;;5042354;28;20423;-70
2022/02/24 08:04:07;;;;;;;5.70;4.47;;;9.30;99.90;;;;;;5024398;28;20876;-68
2022/02/24 08:06:34;;;;;;;8.83;4.40;;;9.30;99.90;;;;;;5042200;28;20246;-70
2022/02/24 08:09:00;;;;;;;5.43;4.73;;;9.10;99.90;;;;;;5041605;28;20276;-69
2022/02/24 08:11:26;;;;;;;5.63;4.63;;;9.20;99.90;;;;;;5042144;28;20903;-69
2022/02/24 08:13:51;;;;;;;4.57;4.13;;;9.30;99.90;;;;;;5045114;28;20455;-69
2022/02/24 08:16:17;;;;;;;4.87;4.13;;;9.30;99.90;;;;;;5046046;28;20216;-70
2022/02/24 08:18:43;;;;;;;5.13;3.80;;;9.30;99.90;;;;;;5046265;28;20181;-69
2022/02/24 08:21:09;;;;;;;4.67;4.03;;;9.30;99.90;;;;;;5045568;28;20180;-71
2022/02/24 08:23:34;;;;;;;5.47;4.00;;;9.30;99.90;;;;;;5045637;28;20624;-68
2022/02/24 08:26:00;;;;;;;5.17;3.60;;;9.30;99.90;;;;;;5045103;28;20202;-70
2022/02/24 08:28:25;;;;;;;4.57;4.00;;;9.40;99.90;;;;;;5045467;28;20214;-68
2022/02/24 08:30:51;;;;;;;5.03;3.60;;;9.40;99.90;;;;;;5044858;28;20232;-69
2022/02/24 08:33:17;;;;;;;5.23;4.13;;;9.50;99.90;;;;;;5045112;28;20191;-69
2022/02/24 08:35:42;;;;;;;5.80;4.30;;;9.60;99.90;;;;;;5045290;28;20189;-69
2022/02/24 08:38:08;;;;;;;4.80;4.30;;;9.80;99.90;;;;;;5045654;28;21094;-69
2022/02/24 08:40:33;;;;;;;4.90;4.10;;;9.80;99.90;;;;;;5045131;28;20202;-69
2022/02/24 08:42:59;;;;;;;5.10;4.40;;;9.80;99.90;;;;;;5045213;28;20177;-70
2022/02/24 08:45:25;;;;;;;5.20;4.00;;;9.90;99.90;;;;;;5014321;28;20192;-69
2022/02/24 08:47:51;;;;;;;4.47;4.07;;;10.10;99.90;;;;;;5045268;28;20465;-69
2022/02/24 08:50:18;;;;;;;4.13;3.67;;;10.20;99.90;;;;;;5046153;28;20469;-70
2022/02/24 08:52:44;;;;;;;3.83;3.50;;;10.30;99.90;;;;;;5045141;28;20499;-69
2022/02/24 08:55:10;;;;;;;6.43;4.40;;;10.40;99.90;;;;;;5026853;28;20976;-69
2022/02/24 08:57:36;;;;;;;5.13;3.83;;;10.30;99.90;;;;;;5044881;28;20610;-68
2022/02/24 09:00:05;;;;;;;4.23;3.83;;;10.40;99.90;;;;;;5044341;28;20508;-68
2022/02/24 09:02:31;;;;;;;3.73;3.43;;;10.50;99.90;;;;;;5045140;28;20174;-70
2022/02/24 09:04:56;;;;;;;5.23;3.73;;;10.60;99.90;;;;;;5044641;28;20416;-71
2022/02/24 09:07:22;;;;;;;3.83;3.30;;;10.60;99.90;;;;;;5045090;28;20244;-70
2022/02/24 09:09:48;;;;;;;5.03;3.97;;;10.70;99.90;;;;;;5043980;28;20218;-70
2022/02/24 09:12:13;;;;;;;5.53;3.77;;;10.70;99.90;;;;;;5044812;28;20186;-69
2022/02/24 09:14:39;;;;;;;4.27;3.83;;;10.80;99.90;;;;;;5044201;28;20607;-70
2022/02/24 09:17:04;;;;;;;7.40;4.30;;;10.90;99.90;;;;;;5044448;28;20174;-71
2022/02/24 09:19:31;;;;;;;5.00;4.03;;;10.90;99.90;;;;;;5044533;28;20227;-69
2022/02/24 09:21:57;;;;;;;5.90;3.87;;;11.20;99.90;;;;;;5026464;28;20236;-73
2022/02/24 09:24:23;;;;;;;5.00;3.90;;;11.40;99.90;;;;;;5025979;28;20433;-78
2022/02/24 09:26:49;;;;;;;5.20;4.03;;;11.60;99.90;;;;;;5044389;28;20423;-73
2022/02/24 09:29:15;;;;;;;5.70;3.77;;;11.60;99.90;;;;;;5044169;28;20464;-72
2022/02/24 09:31:41;;;;;;;6.20;4.03;;;11.70;99.90;;;;;;5044089;28;20670;-72
2022/02/24 09:34:07;;;;;;;4.87;3.73;;;11.80;99.90;;;;;;5044029;28;20971;-71
2022/02/24 09:36:33;;;;;;;3.90;3.30;;;11.80;99.90;;;;;;5044246;28;20761;-69
2022/02/24 09:38:59;;;;;;;3.70;3.00;;;12.20;99.90;;;;;;5044012;28;20254;-70
2022/02/24 09:41:26;;;;;;;6.57;3.93;;;12.20;99.90;;;;;;5025951;28;20178;-73
2022/02/24 09:43:53;;;;;;;6.07;3.43;;;12.20;99.90;;;;;;5044216;28;20410;-71
2022/02/24 09:46:19;;;;;;;4.63;3.40;;;12.20;99.90;;;;;;5044235;28;20415;-73
2022/02/24 09:48:45;;;;;;;7.30;3.60;;;12.40;99.90;;;;;;5026128;28;20476;-71
2022/02/24 09:51:17;;;;;;;5.13;3.67;;;12.50;99.90;;;;;;5043560;28;20259;-71
2022/02/24 09:53:44;;;;;;;4.80;3.47;;;12.40;99.90;;;;;;5044221;28;20537;-72
2022/02/24 09:56:18;;;;;;;3.83;3.13;;;12.60;99.90;;;;;;5043553;28;20584;-70
2022/02/24 09:58:45;;;;;;;6.00;3.40;;;12.80;99.90;;;;;;5043433;28;20404;-69
2022/02/24 10:01:12;;;;;;;5.00;3.20;;;13.00;99.90;;;;;;5043304;28;20418;-68
2022/02/24 10:03:41;;;;;;;3.90;2.40;;;13.00;99.90;;;;;;5043598;28;20768;-70
2022/02/24 10:06:09;;;;;;;3.13;2.67;;;13.10;99.90;;;;;;5043631;28;20925;-68
2022/02/24 10:08:38;;;;;;;3.90;2.60;;;13.20;99.90;;;;;;5043323;28;20447;-71
2022/02/24 10:11:17;;;;;;;6.07;2.80;;;13.40;99.90;;;;;;5042908;28;20761;-69
2022/02/24 10:14:08;;;;;;;2.30;2.10;;;13.80;99.90;;;;;;5043477;28;20449;-70
2022/02/24 10:17:02;;;;;;;4.70;2.50;;;13.80;99.90;;;;;;5042537;28;20450;-68
2022/02/24 10:19:27;;;;;;;2.60;2.17;;;14.20;99.90;;;;;;5043021;28;20780;-69
2022/02/24 10:22:11;;;;;;;3.40;2.03;;;14.30;99.90;;;;;;5043610;28;20818;-68
2022/02/24 10:24:42;;;;;;;3.37;2.13;;;14.50;99.90;;;;;;5043266;28;21027;-70
2022/02/24 10:27:19;;;;;;;10.13;2.17;;;14.50;99.90;;;;;;5043466;28;20408;-70
2022/02/24 10:30:10;;;;;;;10.17;2.30;;;14.60;99.90;;;;;;5043172;28;20435;-69
2022/02/24 10:32:36;;;;;;;6.37;2.13;;;14.50;99.90;;;;;;5043120;28;20418;-67
2022/02/24 10:35:24;;;;;;;3.40;1.97;;;14.70;99.90;;;;;;5042479;28;20864;-68
2022/02/24 10:37:52;;;;;;;6.10;2.00;;;14.60;99.80;;;;;;5067501;22;20418;-67
2022/02/24 10:40:18;;;;;;;2.77;2.00;;;14.50;99.90;;;;;;5048921;28;20837;-69
2022/02/24 10:42:43;;;;;;;5.60;1.90;;;14.50;99.90;;;;;;5049221;28;20424;-69
2022/02/24 10:45:11;;;;;;;4.70;1.93;;;14.50;99.90;;;;;;5048336;28;20223;-69
2022/02/24 10:47:54;;;;;;;1.97;1.70;;;14.40;99.90;;;;;;5047566;28;20186;-68
2022/02/24 10:50:20;;;;;;;2.80;2.00;;;14.50;99.90;;;;;;5038150;28;20435;-70
2022/02/24 10:53:04;;;;;;;3.03;2.00;;;14.60;99.90;;;;;;5033700;28;20775;-68
2022/02/24 10:55:29;;;;;;;2.83;1.97;;;14.60;99.90;;;;;;5036712;28;20716;-70
2022/02/24 10:58:06;;;;;;;2.40;1.90;;;14.60;99.90;;;;;;5049366;28;20495;-71
2022/02/24 11:00:32;;;;;;;3.83;2.37;;;14.90;99.90;;;;;;5050228;28;20412;-70
2022/02/24 11:02:57;;;;;;;4.80;2.10;;;14.80;99.20;;;;;;5050211;28;20418;-69
2022/02/24 11:05:24;;;;;;;3.33;2.23;;;14.70;99.40;;;;;;5049995;28;20579;-68
2022/02/24 11:07:50;;;;;;;5.93;2.00;;;14.70;99.50;;;;;;5048788;28;20237;-69
2022/02/24 11:10:15;;;;;;;2.73;1.80;;;14.70;99.40;;;;;;5035347;28;20421;-67
2022/02/24 11:12:41;;;;;;;5.53;2.63;;;14.80;99.10;;;;;;5032716;28;20416;-70
2022/02/24 11:15:08;;;;;;;3.30;2.17;;;14.60;99.00;;;;;;5035387;28;20230;-71
2022/02/24 11:17:37;;;;;;;2.60;2.20;;;14.70;99.10;;;;;;5035261;28;20254;-68
2022/02/24 11:20:03;;;;;;;3.30;2.00;;;15.10;99.20;;;;;;5031168;28;20422;-67
2022/02/24 11:22:29;;;;;;;2.63;2.20;;;16.20;98.00;;;;;;5028586;28;20431;-68
2022/02/24 11:24:59;;;;;;;4.73;2.00;;;16.90;96.70;;;;;;5041478;28;20423;-70
2022/02/24 11:27:31;;;;;;;5.17;2.20;;;17.60;96.80;;;;;;5031205;28;20778;-68
2022/02/24 11:30:19;;;;;;;3.50;1.97;;;18.20;95.30;;;;;;5043819;28;20507;-68
2022/02/24 11:32:46;;;;;;;2.60;1.83;;;19.00;93.50;;;;;;5049940;28;21123;-67
2022/02/24 11:35:14;;;;;;;4.20;1.47;;;18.60;93.10;;;;;;5050380;28;20488;-67
2022/02/24 11:37:42;;;;;;;4.70;2.10;;;18.60;91.40;;;;;;5049903;28;20432;-68
2022/02/24 11:40:16;;;;;;;4.90;1.80;;;18.60;91.50;;;;;;5047347;28;20439;-69
2022/02/24 11:42:44;;;;;;;1.97;1.30;;;18.40;91.00;;;;;;5034348;28;20424;-69
2022/02/24 11:45:22;;;;;;;7.00;1.80;;;18.20;90.30;;;;;;5028025;28;20846;-69
2022/02/24 11:48:28;;;;;;;3.33;1.50;;;18.10;91.30;;;;;;5047039;28;20575;-69
2022/02/24 11:51:00;;;;;;;3.17;1.47;;;17.90;90.20;;;;;;5023438;28;20437;-69
2022/02/24 11:53:26;;;;;;;5.07;1.73;;;17.60;89.70;;;;;;5029902;28;20459;-69
2022/02/24 11:55:56;;;;;;;1.97;1.40;;;16.90;90.00;;;;;;5032615;28;20477;-70
2022/02/24 11:58:35;;;;;;;4.67;2.40;;;16.40;91.30;;;;;;5031125;28;20270;-70
2022/02/24 12:01:07;;;;;;;3.87;2.20;;;16.40;91.20;;;;;;5029535;28;20875;-67
2022/02/24 12:03:44;;;;;;;2.00;1.60;;;16.30;91.30;;;;;;5039994;28;20428;-68
2022/02/24 12:06:19;;;;;;;1.80;1.33;;;16.40;91.10;;;;;;5030209;28;20448;-67
2022/02/24 12:09:03;;;;;;;3.87;1.30;;;16.20;91.30;;;;;;5042142;28;20440;-69
2022/02/24 12:11:42;;;;;;;2.37;1.67;;;16.40;91.10;;;;;;5034085;28;20415;-67
2022/02/24 12:14:20;;;;;;;2.87;1.80;;;16.00;91.60;;;;;;5051448;28;21868;-70
2022/02/24 12:17:01;;;;;;;3.53;1.73;;;16.30;90.90;;;;;;5030079;28;20487;-68
2022/02/24 12:19:44;;;;;;;4.60;2.37;;;16.50;90.90;;;;;;5035677;28;20442;-67
2022/02/24 12:22:14;;;;;;;3.07;1.83;;;16.70;91.40;;;;;;5059662;28;20447;-67
2022/02/24 12:24:41;;;;;;;2.07;1.33;;;16.60;90.20;;;;;;5051967;28;20424;-67
2022/02/24 12:27:32;;;;;;;3.33;2.00;;;16.50;89.20;;;;;;5053176;28;20411;-69
2022/02/24 12:30:00;;;;;;;3.70;1.70;;;16.70;90.20;;;;;;5039714;28;20442;-66
2022/02/24 12:32:43;;;;;;;2.83;1.47;;;16.60;89.70;;;;;;5028618;28;20414;-68
2022/02/24 12:35:12;;;;;;;1.90;1.50;;;16.50;90.10;;;;;;5039297;28;20452;-69
2022/02/24 12:37:42;;;;;;;2.77;1.90;;;16.40;90.20;;;;;;5048566;28;20515;-68
2022/02/24 12:40:10;;;;;;;3.50;1.57;;;16.30;90.40;;;;;;5046538;28;20938;-68
2022/02/24 12:42:36;;;;;;;4.13;1.60;;;16.10;91.00;;;;;;5039478;28;20418;-69
2022/02/24 12:45:02;;;;;;;5.17;2.00;;;16.10;90.80;;;;;;5037225;28;20416;-71
2022/02/24 12:47:28;;;;;;;2.67;1.63;;;15.70;91.20;;;;;;5037370;28;20475;-68
2022/02/24 12:49:57;;;;;;;4.00;1.50;;;15.90;91.10;;;;;;5044356;28;20446;-68
2022/02/24 12:52:29;;;;;;;1.90;1.70;;;15.90;91.10;;;;;;5041279;28;20819;-68
2022/02/24 12:54:56;;;;;;;2.33;1.77;;;15.70;91.50;;;;;;5035680;28;20786;-70